createdAt,value
2018-07-03T00:00:13.863Z,99444.97
2018-07-03T00:00:45.047Z,99442.53
2018-07-03T00:01:16.221Z,99441.83
2018-07-03T00:01:47.425Z,99443.01
2018-07-03T00:02:19.825Z,99440.60
2018-07-03T00:02:51.005Z,99441.66
2018-07-03T00:03:22.250Z,99446.72
2018-07-03T00:03:53.521Z,99446.34
2018-07-03T00:04:24.764Z,99447.90
2018-07-03T00:04:55.946Z,99437.98
2018-07-03T00:05:27.125Z,99448.15
2018-07-03T00:05:58.314Z,99445.36
2018-07-03T00:06:30.165Z,99452.22
2018-07-03T00:07:01.409Z,99452.81
2018-07-03T00:07:32.585Z,99450.52
2018-07-03T00:08:03.764Z,99454.88
2018-07-03T00:08:34.944Z,99454.51
2018-07-03T00:09:06.214Z,99453.43
2018-07-03T00:09:37.400Z,99454.39
2018-07-03T00:10:08.602Z,99453.55
2018-07-03T00:10:39.793Z,99453.55
2018-07-03T00:11:11.089Z,99456.55
2018-07-03T00:11:42.316Z,99451.23
2018-07-03T00:12:13.510Z,99452.47
2018-07-03T00:12:44.736Z,99456.09
2018-07-03T00:13:15.919Z,99458.03
2018-07-03T00:13:47.153Z,99452.22
2018-07-03T00:14:18.392Z,99452.10
2018-07-03T00:14:50.316Z,99451.64
2018-07-03T00:15:21.497Z,99447.53
2018-07-03T00:15:52.673Z,99448.48
2018-07-03T00:16:23.884Z,99449.35
2018-07-03T00:16:55.056Z,99445.00
2018-07-03T00:17:26.279Z,99448.11
2018-07-03T00:17:57.488Z,99449.11
2018-07-03T00:18:28.668Z,99448.61
2018-07-03T00:18:59.852Z,99444.63
2018-07-03T00:19:31.076Z,99446.33
2018-07-03T00:20:02.888Z,99441.84
2018-07-03T00:20:34.981Z,99438.73
2018-07-03T00:21:06.869Z,99440.89
2018-07-03T00:21:38.059Z,99444.37
2018-07-03T00:22:09.289Z,99443.79
2018-07-03T00:22:41.650Z,99446.45
2018-07-03T00:23:12.824Z,99444.66
2018-07-03T00:23:44.605Z,99443.55
2018-07-03T00:24:15.782Z,99443.30
2018-07-03T00:24:47.021Z,99442.55
2018-07-03T00:25:18.208Z,99438.48
2018-07-03T00:25:49.376Z,99441.97
2018-07-03T00:26:20.558Z,99441.84
2018-07-03T00:26:51.740Z,99437.86
2018-07-03T00:27:22.920Z,99436.66
2018-07-03T00:27:54.105Z,99440.64
2018-07-03T00:28:26.483Z,99441.97
2018-07-03T00:28:57.660Z,99438.11
2018-07-03T00:29:28.840Z,99440.77
2018-07-03T00:30:00.078Z,99439.90
2018-07-03T00:30:31.322Z,99439.53
2018-07-03T00:31:02.503Z,99445.34
2018-07-03T00:31:33.752Z,99446.66
2018-07-03T00:32:04.940Z,99440.15
2018-07-03T00:32:36.108Z,99436.03
2018-07-03T00:33:07.290Z,99440.86
2018-07-03T00:33:38.570Z,99441.84
2018-07-03T00:34:09.764Z,99434.47
2018-07-03T00:34:41.001Z,99442.44
2018-07-03T00:35:12.190Z,99439.41
2018-07-03T00:35:43.377Z,99438.45
2018-07-03T00:36:14.609Z,99440.98
2018-07-03T00:36:45.797Z,99441.59
2018-07-03T00:37:16.970Z,99439.03
2018-07-03T00:37:48.197Z,99432.14
2018-07-03T00:38:19.520Z,99436.25
2018-07-03T00:38:50.696Z,99441.56
2018-07-03T00:39:21.933Z,99440.48
2018-07-03T00:39:53.129Z,99431.53
2018-07-03T00:40:24.330Z,99437.95
2018-07-03T00:40:55.504Z,99436.13
2018-07-03T00:41:26.716Z,99437.00
2018-07-03T00:41:57.896Z,99433.38
2018-07-03T00:42:29.077Z,99430.36
2018-07-03T00:43:00.245Z,99431.31
2018-07-03T00:43:31.422Z,99428.28
2018-07-03T00:44:02.592Z,99427.08
2018-07-03T00:44:33.804Z,99430.20
2018-07-03T00:45:05.049Z,99425.50
2018-07-03T00:45:36.241Z,99432.27
2018-07-03T00:46:07.483Z,99426.09
2018-07-03T00:46:38.724Z,99420.53
2018-07-03T00:47:09.963Z,99426.34
2018-07-03T00:47:41.160Z,99422.11
2018-07-03T00:48:12.338Z,99427.14
2018-07-03T00:48:43.508Z,99428.47
2018-07-03T00:49:14.738Z,99425.81
2018-07-03T00:49:45.980Z,99425.47
2018-07-03T00:50:17.162Z,99430.41
2018-07-03T00:50:48.332Z,99421.70
2018-07-03T00:51:19.609Z,99427.02
2018-07-03T00:51:50.792Z,99428.34
2018-07-03T00:52:21.980Z,99434.02
2018-07-03T00:52:53.149Z,99429.67
2018-07-03T00:53:24.332Z,99429.55
2018-07-03T00:53:55.501Z,99433.06
2018-07-03T00:54:26.684Z,99428.59
2018-07-03T00:54:57.917Z,99429.33
2018-07-03T00:55:29.155Z,99428.38
2018-07-03T00:56:00.341Z,99431.03
2018-07-03T00:56:32.169Z,99428.96
2018-07-03T00:57:03.361Z,99431.24
2018-07-03T00:57:34.545Z,99428.67
2018-07-03T00:58:05.736Z,99426.47
2018-07-03T00:58:36.913Z,99430.78
2018-07-03T00:59:08.084Z,99428.70
2018-07-03T00:59:39.309Z,99428.66
2018-07-03T01:00:10.528Z,99429.49
2018-07-03T01:00:41.711Z,99433.23
2018-07-03T01:01:12.886Z,99430.03
2018-07-03T01:01:44.063Z,99435.13
2018-07-03T01:02:15.236Z,99431.98
2018-07-03T01:02:46.470Z,99426.30
2018-07-03T01:03:17.645Z,99431.98
2018-07-03T01:03:48.877Z,99430.53
2018-07-03T01:04:20.107Z,99427.17
2018-07-03T01:04:51.296Z,99431.03
2018-07-03T01:05:22.510Z,99427.17
2018-07-03T01:05:53.684Z,99429.83
2018-07-03T01:06:24.854Z,99425.47
2018-07-03T01:06:56.078Z,99424.52
2018-07-03T01:07:27.323Z,99431.86
2018-07-03T01:07:58.533Z,99430.53
2018-07-03T01:08:29.701Z,99424.77
2018-07-03T01:09:00.876Z,99428.38
2018-07-03T01:09:32.100Z,99430.91
2018-07-03T01:10:03.296Z,99424.27
2018-07-03T01:10:34.464Z,99430.33
2018-07-03T01:11:05.697Z,99430.20
2018-07-03T01:11:36.935Z,99431.78
2018-07-03T01:12:08.112Z,99428.63
2018-07-03T01:12:39.283Z,99429.62
2018-07-03T01:13:10.519Z,99426.47
2018-07-03T01:13:41.723Z,99426.23
2018-07-03T01:14:12.906Z,99430.00
2018-07-03T01:14:44.091Z,99427.72
2018-07-03T01:15:15.309Z,99425.44
2018-07-03T01:15:46.487Z,99424.81
2018-07-03T01:16:17.666Z,99427.72
2018-07-03T01:16:48.836Z,99427.84
2018-07-03T01:17:20.024Z,99428.22
2018-07-03T01:17:51.195Z,99426.52
2018-07-03T01:18:22.376Z,99427.34
2018-07-03T01:18:53.601Z,99423.86
2018-07-03T01:19:24.820Z,99428.42
2018-07-03T01:19:56.049Z,99429.75
2018-07-03T01:20:27.239Z,99428.09
2018-07-03T01:20:58.457Z,99433.73
2018-07-03T01:21:29.677Z,99431.20
2018-07-03T01:22:01.128Z,99429.87
2018-07-03T01:22:32.317Z,99439.17
2018-07-03T01:23:03.530Z,99434.94
2018-07-03T01:23:34.752Z,99428.55
2018-07-03T01:24:05.942Z,99430.83
2018-07-03T01:24:37.120Z,99430.83
2018-07-03T01:25:09.327Z,99428.87
2018-07-03T01:25:40.496Z,99428.25
2018-07-03T01:26:11.683Z,99430.28
2018-07-03T01:26:42.864Z,99426.26
2018-07-03T01:27:14.125Z,99433.59
2018-07-03T01:27:45.353Z,99430.69
2018-07-03T01:28:16.604Z,99430.45
2018-07-03T01:28:47.861Z,99439.62
2018-07-03T01:29:20.021Z,99436.13
2018-07-03T01:29:51.200Z,99433.10
2018-07-03T01:30:22.428Z,99440.36
2018-07-03T01:30:53.613Z,99437.59
2018-07-03T01:31:24.797Z,99434.56
2018-07-03T01:31:55.992Z,99436.13
2018-07-03T01:32:27.159Z,99436.71
2018-07-03T01:32:59.493Z,99436.83
2018-07-03T01:33:30.713Z,99437.66
2018-07-03T01:34:01.876Z,99438.28
2018-07-03T01:34:33.105Z,99437.27
2018-07-03T01:35:04.309Z,99439.30
2018-07-03T01:35:35.550Z,99438.22
2018-07-03T01:36:06.774Z,99438.59
2018-07-03T01:36:38.013Z,99439.30
2018-07-03T01:37:09.220Z,99443.91
2018-07-03T01:37:40.400Z,99447.27
2018-07-03T01:38:11.620Z,99450.30
2018-07-03T01:38:42.868Z,99445.23
2018-07-03T01:39:14.052Z,99447.34
2018-07-03T01:39:45.241Z,99449.27
2018-07-03T01:40:16.428Z,99446.25
2018-07-03T01:40:47.651Z,99450.72
2018-07-03T01:41:18.881Z,99450.09
2018-07-03T01:41:50.059Z,99449.55
2018-07-03T01:42:21.392Z,99449.67
2018-07-03T01:42:52.620Z,99456.79
2018-07-03T01:43:23.860Z,99453.51
2018-07-03T01:43:55.039Z,99454.72
2018-07-03T01:44:26.204Z,99453.39
2018-07-03T01:44:57.429Z,99459.88
2018-07-03T01:45:28.605Z,99455.39
2018-07-03T01:45:59.873Z,99455.02
2018-07-03T01:46:31.053Z,99455.13
2018-07-03T01:47:02.228Z,99457.98
2018-07-03T01:47:33.997Z,99461.39
2018-07-03T01:48:05.181Z,99454.76
2018-07-03T01:48:36.382Z,99461.64
2018-07-03T01:49:07.568Z,99460.69
2018-07-03T01:49:38.751Z,99465.05
2018-07-03T01:50:10.009Z,99471.45
2018-07-03T01:50:41.192Z,99464.32
2018-07-03T01:51:12.413Z,99465.19
2018-07-03T01:51:43.652Z,99465.94
2018-07-03T01:52:14.897Z,99466.97
2018-07-03T01:52:46.089Z,99466.89
2018-07-03T01:53:17.268Z,99471.33
2018-07-03T01:53:48.443Z,99472.20
2018-07-03T01:54:19.668Z,99470.49
2018-07-03T01:54:50.944Z,99472.77
2018-07-03T01:55:22.173Z,99276.63
2018-07-03T01:55:53.352Z,99474.47
2018-07-03T01:56:24.531Z,99473.27
2018-07-03T01:56:55.749Z,99471.33
2018-07-03T01:57:26.952Z,99476.38
2018-07-03T01:57:58.185Z,99477.81
2018-07-03T01:58:29.359Z,99474.33
2018-07-03T01:59:00.544Z,99475.40
2018-07-03T01:59:32.061Z,99475.28
2018-07-03T02:00:03.259Z,99464.88
2018-07-03T02:00:34.534Z,99471.12
2018-07-03T02:01:06.875Z,99469.66
2018-07-03T02:01:38.060Z,99469.28
2018-07-03T02:02:09.280Z,99464.93
2018-07-03T02:02:40.464Z,99469.14
2018-07-03T02:03:11.693Z,99466.11
2018-07-03T02:03:42.914Z,99464.33
2018-07-03T02:04:14.353Z,99467.44
2018-07-03T02:04:45.592Z,99461.56
2018-07-03T02:05:16.903Z,99466.86
2018-07-03T02:05:48.132Z,99464.59
2018-07-03T02:06:19.360Z,99461.70
2018-07-03T02:06:50.582Z,99468.22
2018-07-03T02:07:21.815Z,99466.89
2018-07-03T02:07:53.112Z,99465.11
2018-07-03T02:08:24.359Z,99466.44
2018-07-03T02:08:55.549Z,99466.89
2018-07-03T02:09:26.803Z,99463.03
2018-07-03T02:09:57.985Z,99466.06
2018-07-03T02:10:29.228Z,99471.94
2018-07-03T02:11:00.467Z,99473.88
2018-07-03T02:11:31.649Z,99472.74
2018-07-03T02:12:02.846Z,99473.35
2018-07-03T02:12:34.028Z,99474.30
2018-07-03T02:13:05.204Z,99473.92
2018-07-03T02:13:36.486Z,99478.48
2018-07-03T02:14:07.669Z,99470.75
2018-07-03T02:14:38.864Z,99473.98
2018-07-03T02:15:10.044Z,99471.19
2018-07-03T02:15:41.273Z,99470.52
2018-07-03T02:16:12.521Z,99471.20
2018-07-03T02:16:43.731Z,99470.45
2018-07-03T02:17:14.909Z,99469.13
2018-07-03T02:17:46.150Z,99471.89
2018-07-03T02:18:17.346Z,99469.35
2018-07-03T02:18:48.574Z,99463.56
2018-07-03T02:19:19.778Z,99462.84
2018-07-03T02:19:50.960Z,99464.25
2018-07-03T02:20:22.141Z,99464.47
2018-07-03T02:20:53.364Z,99467.32
2018-07-03T02:21:24.540Z,99466.38
2018-07-03T02:21:55.748Z,99462.02
2018-07-03T02:22:26.937Z,99459.75
2018-07-03T02:22:58.174Z,99465.80
2018-07-03T02:23:29.352Z,99461.83
2018-07-03T02:24:00.580Z,99467.50
2018-07-03T02:24:31.808Z,99463.91
2018-07-03T02:25:02.997Z,99468.03
2018-07-03T02:25:34.172Z,99462.16
2018-07-03T02:26:05.405Z,99465.78
2018-07-03T02:26:36.591Z,99465.21
2018-07-03T02:27:07.817Z,99466.54
2018-07-03T02:27:38.998Z,99470.31
2018-07-03T02:28:10.184Z,99465.09
2018-07-03T02:28:41.372Z,99466.80
2018-07-03T02:29:12.565Z,99466.42
2018-07-03T02:29:43.736Z,99470.39
2018-07-03T02:30:15.001Z,99469.94
2018-07-03T02:30:46.196Z,99468.70
2018-07-03T02:31:17.370Z,99472.67
2018-07-03T02:31:48.548Z,99470.89
2018-07-03T02:32:19.787Z,99472.02
2018-07-03T02:32:50.985Z,99471.90
2018-07-03T02:33:22.172Z,99472.66
2018-07-03T02:33:53.346Z,99471.12
2018-07-03T02:34:24.620Z,99469.69
2018-07-03T02:34:55.940Z,99468.36
2018-07-03T02:35:27.183Z,99469.20
2018-07-03T02:35:58.441Z,99469.69
2018-07-03T02:36:29.638Z,99475.37
2018-07-03T02:37:00.836Z,99471.02
2018-07-03T02:37:32.008Z,99470.27
2018-07-03T02:38:03.241Z,99476.63
2018-07-03T02:38:34.444Z,99476.48
2018-07-03T02:39:05.670Z,99473.63
2018-07-03T02:39:36.861Z,99476.88
2018-07-03T02:40:08.075Z,99478.66
2018-07-03T02:40:39.252Z,99477.08
2018-07-03T02:41:10.993Z,99477.68
2018-07-03T02:41:42.173Z,99479.84
2018-07-03T02:42:13.349Z,99478.14
2018-07-03T02:42:44.646Z,99479.58
2018-07-03T02:43:15.880Z,99483.17
2018-07-03T02:43:47.149Z,99489.54
2018-07-03T02:44:18.346Z,99485.67
2018-07-03T02:44:49.585Z,99488.59
2018-07-03T02:45:21.488Z,99490.03
2018-07-03T02:45:52.757Z,99485.11
2018-07-03T02:46:23.947Z,99484.98
2018-07-03T02:46:55.128Z,99484.98
2018-07-03T02:47:26.353Z,99488.97
2018-07-03T02:47:57.542Z,99495.86
2018-07-03T02:48:28.716Z,99490.44
2018-07-03T02:48:59.930Z,99494.68
2018-07-03T02:49:31.109Z,99493.42
2018-07-03T02:50:02.305Z,99496.25
2018-07-03T02:50:33.548Z,99497.84
2018-07-03T02:51:04.777Z,99502.19
2018-07-03T02:51:36.013Z,99502.57
2018-07-03T02:52:07.293Z,99499.69
2018-07-03T02:52:38.489Z,99499.49
2018-07-03T02:53:09.715Z,99496.92
2018-07-03T02:53:40.997Z,99500.06
2018-07-03T02:54:12.176Z,99495.71
2018-07-03T02:54:43.401Z,99499.69
2018-07-03T02:55:14.595Z,99500.64
2018-07-03T02:55:45.765Z,99502.19
2018-07-03T02:56:16.948Z,99499.86
2018-07-03T02:56:48.173Z,99501.27
2018-07-03T02:57:19.360Z,99507.43
2018-07-03T02:57:50.573Z,99503.53
2018-07-03T02:58:21.750Z,99508.84
2018-07-03T02:58:52.921Z,99510.73
2018-07-03T02:59:24.139Z,99510.59
2018-07-03T02:59:55.320Z,99511.53
2018-07-03T03:00:26.505Z,99510.59
2018-07-03T03:00:57.687Z,99509.86
2018-07-03T03:01:28.863Z,99512.52
2018-07-03T03:02:00.048Z,99513.92
2018-07-03T03:02:31.274Z,99512.70
2018-07-03T03:03:02.485Z,99514.78
2018-07-03T03:03:33.721Z,99513.09
2018-07-03T03:04:04.957Z,99515.47
2018-07-03T03:04:36.140Z,99509.53
2018-07-03T03:05:07.362Z,99506.99
2018-07-03T03:05:38.581Z,99505.41
2018-07-03T03:06:09.757Z,99510.70
2018-07-03T03:06:40.964Z,99510.33
2018-07-03T03:07:12.145Z,99507.67
2018-07-03T03:07:43.324Z,99516.20
2018-07-03T03:08:14.588Z,99511.42
2018-07-03T03:08:46.085Z,99515.78
2018-07-03T03:09:17.266Z,99514.72
2018-07-03T03:09:48.446Z,99515.92
2018-07-03T03:10:19.631Z,99514.61
2018-07-03T03:10:50.921Z,99514.87
2018-07-03T03:11:22.110Z,99519.59
2018-07-03T03:11:53.324Z,99520.81
2018-07-03T03:12:24.507Z,99512.66
2018-07-03T03:12:55.685Z,99490.48
2018-07-03T03:13:26.921Z,99517.16
2018-07-03T03:13:58.114Z,99518.49
2018-07-03T03:14:29.361Z,99520.23
2018-07-03T03:15:01.083Z,99521.81
2018-07-03T03:15:32.257Z,99515.08
2018-07-03T03:16:03.478Z,99517.03
2018-07-03T03:16:34.656Z,99522.60
2018-07-03T03:17:05.841Z,99523.24
2018-07-03T03:17:37.051Z,99524.45
2018-07-03T03:18:08.285Z,99524.34
2018-07-03T03:18:39.475Z,99528.58
2018-07-03T03:19:11.509Z,99528.58
2018-07-03T03:19:42.760Z,99527.17
2018-07-03T03:20:14.022Z,99531.78
2018-07-03T03:20:45.201Z,99534.34
2018-07-03T03:21:16.425Z,99534.41
2018-07-03T03:21:47.656Z,99534.13
2018-07-03T03:22:18.892Z,99539.14
2018-07-03T03:22:50.100Z,99538.75
2018-07-03T03:23:21.300Z,99533.50
2018-07-03T03:23:52.491Z,99538.28
2018-07-03T03:24:23.670Z,99537.98
2018-07-03T03:24:54.906Z,99538.63
2018-07-03T03:25:26.153Z,99540.62
2018-07-03T03:25:57.411Z,99537.27
2018-07-03T03:26:28.692Z,99541.31
2018-07-03T03:26:59.880Z,99543.67
2018-07-03T03:27:31.489Z,99536.33
2018-07-03T03:28:02.727Z,99540.88
2018-07-03T03:28:33.897Z,99540.91
2018-07-03T03:29:05.084Z,99537.79
2018-07-03T03:29:36.266Z,99537.94
2018-07-03T03:30:07.455Z,99535.79
2018-07-03T03:30:38.632Z,99542.83
2018-07-03T03:31:10.378Z,99533.05
2018-07-03T03:31:41.603Z,99540.40
2018-07-03T03:32:12.883Z,99540.64
2018-07-03T03:32:45.243Z,99538.13
2018-07-03T03:33:16.468Z,99538.05
2018-07-03T03:33:47.670Z,99542.39
2018-07-03T03:34:18.849Z,99539.13
2018-07-03T03:34:50.058Z,99547.09
2018-07-03T03:35:21.232Z,99537.90
2018-07-03T03:35:52.549Z,99537.05
2018-07-03T03:36:23.784Z,99533.39
2018-07-03T03:36:55.033Z,99537.63
2018-07-03T03:37:26.248Z,99540.17
2018-07-03T03:37:57.431Z,99535.67
2018-07-03T03:38:28.621Z,99540.27
2018-07-03T03:38:59.865Z,99536.17
2018-07-03T03:39:31.053Z,99536.64
2018-07-03T03:40:02.249Z,99533.24
2018-07-03T03:40:33.493Z,99531.91
2018-07-03T03:41:04.676Z,99535.27
2018-07-03T03:41:35.909Z,99534.50
2018-07-03T03:42:07.101Z,99532.75
2018-07-03T03:42:38.324Z,99535.03
2018-07-03T03:43:09.517Z,99532.22
2018-07-03T03:43:40.688Z,99533.41
2018-07-03T03:44:11.871Z,99531.55
2018-07-03T03:44:43.103Z,99539.54
2018-07-03T03:45:14.299Z,99535.16
2018-07-03T03:45:45.483Z,99540.58
2018-07-03T03:46:16.665Z,99541.91
2018-07-03T03:46:47.853Z,99539.34
2018-07-03T03:47:19.081Z,99547.32
2018-07-03T03:47:51.428Z,99541.69
2018-07-03T03:48:22.621Z,99540.27
2018-07-03T03:48:54.695Z,99544.44
2018-07-03T03:49:26.089Z,99539.05
2018-07-03T03:49:57.334Z,99539.31
2018-07-03T03:50:28.622Z,99541.89
2018-07-03T03:50:59.877Z,99540.74
2018-07-03T03:51:31.125Z,99540.56
2018-07-03T03:52:02.308Z,99542.05
2018-07-03T03:52:33.485Z,99541.10
2018-07-03T03:53:04.765Z,99537.77
2018-07-03T03:53:35.964Z,99545.95
2018-07-03T03:54:07.151Z,99538.73
2018-07-03T03:54:38.412Z,99540.48
2018-07-03T03:55:09.599Z,99549.08
2018-07-03T03:55:40.777Z,99548.10
2018-07-03T03:56:12.005Z,99546.33
2018-07-03T03:56:43.205Z,99547.97
2018-07-03T03:57:14.433Z,99552.91
2018-07-03T03:57:45.670Z,99550.23
2018-07-03T03:58:16.928Z,99552.75
2018-07-03T03:58:48.180Z,99550.48
2018-07-03T03:59:19.404Z,99556.17
2018-07-03T03:59:50.596Z,99556.08
2018-07-03T04:00:21.818Z,99556.16
2018-07-03T04:00:53.065Z,99556.12
2018-07-03T04:01:24.217Z,99554.17
2018-07-03T04:01:55.439Z,99551.28
2018-07-03T04:02:26.619Z,99553.84
2018-07-03T04:02:57.852Z,99553.63
2018-07-03T04:03:29.043Z,99548.11
2018-07-03T04:04:00.257Z,99550.52
2018-07-03T04:04:31.433Z,99558.48
2018-07-03T04:05:02.666Z,99555.93
2018-07-03T04:05:33.993Z,99557.70
2018-07-03T04:06:05.815Z,99561.07
2018-07-03T04:06:37.591Z,99561.53
2018-07-03T04:07:09.853Z,99557.98
2018-07-03T04:07:41.060Z,99563.55
2018-07-03T04:08:12.258Z,99560.80
2018-07-03T04:08:43.461Z,99564.31
2018-07-03T04:09:14.701Z,99564.31
2018-07-03T04:09:45.897Z,99562.62
2018-07-03T04:10:17.089Z,99563.22
2018-07-03T04:10:48.378Z,99559.00
2018-07-03T04:11:19.580Z,99560.97
2018-07-03T04:11:50.764Z,99564.11
2018-07-03T04:12:21.944Z,99556.98
2018-07-03T04:12:53.123Z,99567.83
2018-07-03T04:13:24.319Z,99563.46
2018-07-03T04:13:55.509Z,99563.67
2018-07-03T04:14:26.750Z,99564.09
2018-07-03T04:14:58.025Z,99558.34
2018-07-03T04:15:29.231Z,99561.32
2018-07-03T04:16:00.506Z,99562.25
2018-07-03T04:16:31.753Z,99556.28
2018-07-03T04:17:02.955Z,99557.14
2018-07-03T04:17:34.808Z,99556.78
2018-07-03T04:18:06.035Z,99556.28
2018-07-03T04:18:37.269Z,99555.66
2018-07-03T04:19:08.452Z,99557.98
2018-07-03T04:19:39.685Z,99547.89
2018-07-03T04:20:10.877Z,99551.91
2018-07-03T04:20:42.101Z,99554.30
2018-07-03T04:21:13.281Z,99545.41
2018-07-03T04:21:44.513Z,99551.95
2018-07-03T04:22:15.705Z,99552.16
2018-07-03T04:22:46.954Z,99555.14
2018-07-03T04:23:18.143Z,99551.48
2018-07-03T04:23:49.365Z,99553.59
2018-07-03T04:24:20.608Z,99554.17
2018-07-03T04:24:51.832Z,99548.80
2018-07-03T04:25:23.020Z,99556.04
2018-07-03T04:25:54.201Z,99556.53
2018-07-03T04:26:25.428Z,99561.38
2018-07-03T04:26:56.664Z,99547.99
2018-07-03T04:27:27.896Z,99552.48
2018-07-03T04:27:59.081Z,99552.66
2018-07-03T04:28:30.309Z,99548.80
2018-07-03T04:29:01.534Z,99561.17
2018-07-03T04:29:32.981Z,99556.41
2018-07-03T04:30:04.206Z,99549.37
2018-07-03T04:30:35.457Z,99552.88
2018-07-03T04:31:06.648Z,99554.57
2018-07-03T04:31:37.923Z,99558.00
2018-07-03T04:32:09.337Z,99555.40
2018-07-03T04:32:40.519Z,99557.89
2018-07-03T04:33:11.706Z,99549.80
2018-07-03T04:33:42.950Z,99558.29
2018-07-03T04:34:14.181Z,99555.23
2018-07-03T04:34:45.961Z,99560.25
2018-07-03T04:35:17.144Z,99564.72
2018-07-03T04:35:48.377Z,99554.43
2018-07-03T04:36:19.708Z,99561.88
2018-07-03T04:36:50.976Z,99562.84
2018-07-03T04:37:22.223Z,99559.28
2018-07-03T04:37:53.429Z,99569.98
2018-07-03T04:38:24.608Z,99567.51
2018-07-03T04:38:55.796Z,99569.23
2018-07-03T04:39:26.996Z,99573.89
2018-07-03T04:39:58.238Z,99574.84
2018-07-03T04:40:29.478Z,99573.36
2018-07-03T04:41:00.716Z,99575.84
2018-07-03T04:41:31.941Z,99577.97
2018-07-03T04:42:03.150Z,99577.53
2018-07-03T04:42:34.336Z,99575.91
2018-07-03T04:43:05.517Z,99579.34
2018-07-03T04:43:36.704Z,99575.91
2018-07-03T04:44:07.907Z,99572.75
2018-07-03T04:44:39.145Z,99576.13
2018-07-03T04:45:10.332Z,99576.48
2018-07-03T04:45:41.521Z,99573.48
2018-07-03T04:46:12.754Z,99576.27
2018-07-03T04:46:43.986Z,99573.72
2018-07-03T04:47:15.232Z,99574.84
2018-07-03T04:47:46.436Z,99571.58
2018-07-03T04:48:17.624Z,99574.03
2018-07-03T04:48:48.842Z,99569.04
2018-07-03T04:49:20.054Z,99570.47
2018-07-03T04:49:51.296Z,99574.70
2018-07-03T04:50:22.529Z,99575.24
2018-07-03T04:50:53.789Z,99574.41
2018-07-03T04:51:24.977Z,99572.02
2018-07-03T04:51:56.262Z,99571.48
2018-07-03T04:52:27.452Z,99571.08
2018-07-03T04:52:58.669Z,99578.05
2018-07-03T04:53:29.959Z,99582.41
2018-07-03T04:54:01.155Z,99575.25
2018-07-03T04:54:32.378Z,99583.27
2018-07-03T04:55:03.559Z,99588.45
2018-07-03T04:55:34.800Z,99582.92
2018-07-03T04:56:06.005Z,99578.61
2018-07-03T04:56:37.188Z,99581.99
2018-07-03T04:57:08.413Z,99582.78
2018-07-03T04:57:39.645Z,99582.90
2018-07-03T04:58:10.833Z,99583.32
2018-07-03T04:58:42.017Z,99577.73
2018-07-03T04:59:13.207Z,99584.23
2018-07-03T04:59:44.384Z,99588.72
2018-07-03T05:00:16.328Z,99576.70
2018-07-03T05:00:47.521Z,99581.05
2018-07-03T05:01:18.701Z,99574.68
2018-07-03T05:01:49.872Z,99574.03
2018-07-03T05:02:21.077Z,99571.47
2018-07-03T05:02:52.247Z,99575.03
2018-07-03T05:03:23.434Z,99574.70
2018-07-03T05:03:54.659Z,99579.77
2018-07-03T05:04:25.901Z,99579.34
2018-07-03T05:04:57.135Z,99577.98
2018-07-03T05:05:28.333Z,99574.74
2018-07-03T05:05:59.599Z,99571.11
2018-07-03T05:06:30.866Z,99570.19
2018-07-03T05:07:02.057Z,99566.08
2018-07-03T05:07:33.244Z,99569.72
2018-07-03T05:08:04.474Z,99569.27
2018-07-03T05:08:35.663Z,99568.51
2018-07-03T05:09:06.869Z,99546.63
2018-07-03T05:09:38.742Z,99563.12
2018-07-03T05:10:10.030Z,99566.15
2018-07-03T05:10:41.286Z,99565.66
2018-07-03T05:11:12.475Z,99563.12
2018-07-03T05:12:21.124Z,99562.61
2018-07-03T05:12:52.948Z,99557.75
2018-07-03T05:13:24.138Z,99565.49
2018-07-03T05:13:55.353Z,99559.25
2018-07-03T05:14:27.252Z,99560.77
2018-07-03T05:14:58.452Z,99561.55
2018-07-03T05:15:29.646Z,99566.30
2018-07-03T05:16:01.493Z,99565.10
2018-07-03T05:16:33.582Z,99566.73
2018-07-03T05:17:04.823Z,99564.03
2018-07-03T05:17:36.337Z,99563.46
2018-07-03T05:18:07.543Z,99565.25
2018-07-03T05:18:38.757Z,99569.41
2018-07-03T05:19:09.980Z,99568.76
2018-07-03T05:19:41.160Z,99565.77
2018-07-03T05:20:12.350Z,99573.84
2018-07-03T05:20:43.540Z,99566.45
2018-07-03T05:21:14.727Z,99572.00
2018-07-03T05:21:45.905Z,99567.41
2018-07-03T05:22:17.092Z,99568.95
2018-07-03T05:22:48.307Z,99570.88
2018-07-03T05:23:19.484Z,99566.84
2018-07-03T05:23:50.696Z,99570.34
2018-07-03T05:24:21.917Z,99564.29
2018-07-03T05:24:53.100Z,99439.14
2018-07-03T05:25:24.326Z,99563.12
2018-07-03T05:25:55.554Z,99562.09
2018-07-03T05:26:26.728Z,99566.66
2018-07-03T05:26:57.959Z,99559.94
2018-07-03T05:27:29.202Z,99561.61
2018-07-03T05:28:00.401Z,99561.44
2018-07-03T05:28:31.624Z,99565.14
2018-07-03T05:29:02.808Z,99558.23
2018-07-03T05:29:34.013Z,99561.44
2018-07-03T05:30:05.202Z,99565.15
2018-07-03T05:30:36.436Z,99558.39
2018-07-03T05:31:07.671Z,99556.38
2018-07-03T05:31:38.880Z,99557.74
2018-07-03T05:32:10.061Z,99557.73
2018-07-03T05:32:41.305Z,99554.86
2018-07-03T05:33:12.541Z,99555.55
2018-07-03T05:33:43.785Z,99560.06
2018-07-03T05:34:15.034Z,99561.39
2018-07-03T05:34:47.078Z,99564.56
2018-07-03T05:35:18.269Z,99566.42
2018-07-03T05:35:49.443Z,99566.24
2018-07-03T05:36:20.671Z,99562.31
2018-07-03T05:36:51.927Z,99569.33
2018-07-03T05:37:23.117Z,99568.72
2018-07-03T05:37:54.296Z,99573.87
2018-07-03T05:38:25.517Z,99570.91
2018-07-03T05:38:56.874Z,99574.61
2018-07-03T05:39:28.124Z,99571.02
2018-07-03T05:39:59.313Z,99576.91
2018-07-03T05:40:30.512Z,99568.56
2018-07-03T05:41:01.703Z,99563.41
2018-07-03T05:41:32.937Z,99567.80
2018-07-03T05:42:04.125Z,99563.10
2018-07-03T05:42:35.310Z,99567.30
2018-07-03T05:43:06.591Z,99566.95
2018-07-03T05:43:37.801Z,99563.70
2018-07-03T05:44:09.985Z,99562.84
2018-07-03T05:44:41.217Z,99566.38
2018-07-03T05:45:12.469Z,99562.53
2018-07-03T05:45:43.724Z,99569.63
2018-07-03T05:46:14.977Z,99570.16
2018-07-03T05:46:46.230Z,99564.80
2018-07-03T05:47:17.452Z,99560.94
2018-07-03T05:47:48.937Z,99566.49
2018-07-03T05:48:20.123Z,99565.49
2018-07-03T05:48:51.375Z,99568.17
2018-07-03T05:49:22.634Z,99573.89
2018-07-03T05:49:53.886Z,99561.45
2018-07-03T05:50:26.079Z,99566.49
2018-07-03T05:50:57.362Z,99564.48
2018-07-03T05:51:28.784Z,99567.83
2018-07-03T05:51:59.842Z,99561.93
2018-07-03T05:52:31.054Z,99570.02
2018-07-03T05:53:02.305Z,99569.52
2018-07-03T05:53:33.517Z,99566.50
2018-07-03T05:54:04.745Z,99563.95
2018-07-03T05:54:35.949Z,99540.56
2018-07-03T05:55:07.145Z,99564.97
2018-07-03T05:55:38.360Z,99570.54
2018-07-03T05:56:09.620Z,99557.41
2018-07-03T05:56:40.827Z,99564.97
2018-07-03T05:57:12.016Z,99565.99
2018-07-03T05:57:43.218Z,99565.46
2018-07-03T05:58:14.616Z,99560.03
2018-07-03T05:58:45.641Z,99562.73
2018-07-03T05:59:16.878Z,99557.47
2018-07-03T05:59:48.113Z,99554.61
2018-07-03T06:00:19.361Z,99553.61
2018-07-03T06:00:50.553Z,99554.95
2018-07-03T06:01:21.781Z,99554.13
2018-07-03T06:01:52.983Z,99552.63
2018-07-03T06:02:24.170Z,99550.28
2018-07-03T06:02:55.352Z,99553.13
2018-07-03T06:03:26.594Z,99548.58
2018-07-03T06:03:57.884Z,99550.61
2018-07-03T06:04:29.120Z,99547.75
2018-07-03T06:05:00.361Z,99553.64
2018-07-03T06:05:32.112Z,99549.95
2018-07-03T06:06:03.326Z,99554.66
2018-07-03T06:06:34.561Z,99554.97
2018-07-03T06:07:05.767Z,99558.19
2018-07-03T06:07:36.957Z,99554.97